createdAt,value
2023-03-02T00:01:40.360Z,5.60
2023-03-02T00:04:07.991Z,6.00
2023-03-02T00:06:35.125Z,6.80
2023-03-02T00:09:01.566Z,5.63
2023-03-02T00:11:28.685Z,5.13
2023-03-02T00:13:54.733Z,5.27
2023-03-02T00:16:20.978Z,5.57
2023-03-02T00:18:47.139Z,4.30
2023-03-02T00:21:13.449Z,5.33
2023-03-02T00:23:39.526Z,4.80
2023-03-02T00:26:05.756Z,4.50
2023-03-02T00:28:32.491Z,4.80
2023-03-02T00:30:58.967Z,5.17
2023-03-02T00:33:25.282Z,4.50
2023-03-02T00:35:51.400Z,4.30
2023-03-02T00:38:17.497Z,5.23
2023-03-02T00:40:48.665Z,4.50
2023-03-02T00:43:15.498Z,4.50
2023-03-02T00:45:41.584Z,4.50
2023-03-02T00:48:08.747Z,4.13
2023-03-02T00:50:40.448Z,4.20
2023-03-02T00:53:08.481Z,5.17
2023-03-02T00:55:35.505Z,5.10
2023-03-02T00:58:02.076Z,4.57
2023-03-02T01:00:28.398Z,4.57
2023-03-02T01:02:55.036Z,4.93
2023-03-02T01:05:21.279Z,4.57
2023-03-02T01:07:47.391Z,4.70
2023-03-02T01:10:13.974Z,5.07
2023-03-02T01:12:40.202Z,4.70
2023-03-02T01:15:07.803Z,4.37
2023-03-02T01:17:33.974Z,5.10
2023-03-02T01:20:00.225Z,5.03
2023-03-02T01:22:26.553Z,4.27
2023-03-02T01:24:52.717Z,5.10
2023-03-02T01:27:19.547Z,4.33
2023-03-02T01:29:45.631Z,4.63
2023-03-02T01:32:11.812Z,4.63
2023-03-02T01:34:37.946Z,4.50
2023-03-02T01:37:04.105Z,4.37
2023-03-02T01:39:30.221Z,4.10
2023-03-02T01:41:56.287Z,5.03
2023-03-02T01:44:43.781Z,4.83
2023-03-02T01:47:17.980Z,4.60
2023-03-02T01:49:48.920Z,4.70
2023-03-02T01:52:15.511Z,4.50
2023-03-02T01:54:42.268Z,4.33
2023-03-02T01:57:09.408Z,3.90
2023-03-02T01:59:37.775Z,4.90
2023-03-02T02:02:06.543Z,4.80
2023-03-02T02:04:36.875Z,4.10
2023-03-02T02:07:05.308Z,4.47
2023-03-02T02:09:43.903Z,4.83
2023-03-02T02:12:15.048Z,4.53
2023-03-02T02:14:41.674Z,4.20
2023-03-02T02:17:07.803Z,4.70
2023-03-02T02:19:43.272Z,4.10
2023-03-02T02:22:10.061Z,4.33
2023-03-02T02:24:46.135Z,4.47
2023-03-02T02:27:12.625Z,4.20
2023-03-02T02:29:45.821Z,4.70
2023-03-02T02:32:14.848Z,4.60
2023-03-02T02:34:46.044Z,4.60
2023-03-02T02:37:18.809Z,4.97
2023-03-02T02:39:46.564Z,4.20
2023-03-02T02:42:40.788Z,4.43
2023-03-02T02:45:18.724Z,4.10
2023-03-02T02:47:44.952Z,4.87
2023-03-02T02:50:18.640Z,5.10
2023-03-02T02:52:47.888Z,4.23
2023-03-02T02:55:15.919Z,4.80
2023-03-02T02:57:42.099Z,4.80
2023-03-02T03:00:18.121Z,4.90
2023-03-02T03:02:48.610Z,4.17
2023-03-02T03:05:15.846Z,4.70
2023-03-02T03:07:42.289Z,5.10
2023-03-02T03:10:27.923Z,4.83
2023-03-02T03:12:54.845Z,4.70
2023-03-02T03:15:21.130Z,5.00
2023-03-02T03:17:55.453Z,5.27
2023-03-02T03:20:22.268Z,4.70
2023-03-02T03:22:48.341Z,4.17
2023-03-02T03:25:14.744Z,4.60
2023-03-02T03:27:44.927Z,4.27
2023-03-02T03:30:13.365Z,4.70
2023-03-02T03:32:40.408Z,4.60
2023-03-02T03:35:10.188Z,4.50
2023-03-02T03:37:38.029Z,4.47
2023-03-02T03:40:05.755Z,5.30
2023-03-02T03:42:31.927Z,5.00
2023-03-02T03:44:58.146Z,4.83
2023-03-02T03:47:24.288Z,4.63
2023-03-02T03:49:50.342Z,4.23
2023-03-02T03:52:16.578Z,4.80
2023-03-02T03:54:42.656Z,4.90
2023-03-02T03:57:11.352Z,4.77
2023-03-02T03:59:37.463Z,5.07
2023-03-02T04:02:03.563Z,4.47
2023-03-02T04:04:33.864Z,4.83
2023-03-02T04:07:00.227Z,4.80
2023-03-02T04:09:26.826Z,4.80
2023-03-02T04:11:56.325Z,4.40
2023-03-02T04:14:23.359Z,4.80
2023-03-02T04:16:50.372Z,4.67
2023-03-02T04:19:16.920Z,4.47
2023-03-02T04:21:46.941Z,4.77
2023-03-02T04:24:13.944Z,4.33
2023-03-02T04:26:41.349Z,4.40
2023-03-02T04:29:08.264Z,5.00
2023-03-02T04:31:34.907Z,4.23
2023-03-02T04:34:03.410Z,4.37
2023-03-02T04:36:31.872Z,4.87
2023-03-02T04:38:58.905Z,4.30
2023-03-02T04:41:25.012Z,4.83
2023-03-02T04:43:51.884Z,4.87
2023-03-02T04:46:21.285Z,4.27
2023-03-02T04:48:47.403Z,4.83
2023-03-02T04:51:18.430Z,4.33
2023-03-02T04:53:44.538Z,4.90
2023-03-02T04:56:10.602Z,4.43
2023-03-02T04:58:36.730Z,4.57
2023-03-02T05:01:02.990Z,4.43
2023-03-02T05:03:29.164Z,4.60
2023-03-02T05:05:56.477Z,4.10
2023-03-02T05:08:23.697Z,5.47
2023-03-02T05:10:49.791Z,5.13
2023-03-02T05:13:15.914Z,4.80
2023-03-02T05:15:42.788Z,4.67
2023-03-02T05:18:11.125Z,5.20
2023-03-02T05:20:38.016Z,4.83
2023-03-02T05:23:06.703Z,5.30
2023-03-02T05:25:34.794Z,5.20
2023-03-02T05:28:01.473Z,5.57
2023-03-02T05:30:27.972Z,5.10
2023-03-02T05:32:54.385Z,5.47
2023-03-02T05:35:21.751Z,5.40
2023-03-02T05:37:48.083Z,4.80
2023-03-02T05:40:18.544Z,4.93
2023-03-02T05:42:45.160Z,4.57
2023-03-02T05:45:20.920Z,5.20
2023-03-02T05:47:47.407Z,5.10
2023-03-02T05:50:13.880Z,5.57
2023-03-02T05:52:39.980Z,4.67
2023-03-02T05:55:06.755Z,5.40
2023-03-02T05:57:33.846Z,5.67
2023-03-02T05:59:59.906Z,5.73
2023-03-02T06:02:26.011Z,6.10
2023-03-02T06:04:52.093Z,5.67
2023-03-02T06:07:18.199Z,5.50
2023-03-02T06:09:44.309Z,6.27
2023-03-02T06:12:10.357Z,5.80
2023-03-02T06:14:36.421Z,5.60
2023-03-02T06:17:02.497Z,5.77
2023-03-02T06:19:28.580Z,5.20
2023-03-02T06:21:54.714Z,5.60
2023-03-02T06:24:20.840Z,5.93
2023-03-02T06:26:46.934Z,5.33
2023-03-02T06:29:13.357Z,6.47
2023-03-02T06:31:39.602Z,6.10
2023-03-02T06:34:06.065Z,6.40
2023-03-02T06:36:32.547Z,5.67
2023-03-02T06:38:59.012Z,6.23
2023-03-02T06:41:25.226Z,5.80
2023-03-02T06:43:51.285Z,6.37
2023-03-02T06:46:17.427Z,5.50
2023-03-02T06:48:43.534Z,6.00
2023-03-02T06:51:09.760Z,6.23
2023-03-02T06:53:35.987Z,6.70
2023-03-02T06:56:02.090Z,6.00
2023-03-02T06:58:28.232Z,5.20
2023-03-02T07:01:08.285Z,7.10
2023-03-02T07:03:35.538Z,6.33
2023-03-02T07:06:02.621Z,6.53
2023-03-02T07:08:28.833Z,6.07
2023-03-02T07:10:54.956Z,5.50
2023-03-02T07:13:21.170Z,5.73
2023-03-02T07:15:47.328Z,5.60
2023-03-02T07:18:13.462Z,5.90
2023-03-02T07:20:39.555Z,5.63
2023-03-02T07:23:06.099Z,5.30
2023-03-02T07:25:32.570Z,5.13
2023-03-02T07:27:58.698Z,4.83
2023-03-02T07:30:25.148Z,5.00
2023-03-02T07:32:51.394Z,5.37
2023-03-02T07:35:18.204Z,5.33
2023-03-02T07:37:44.444Z,5.20
2023-03-02T07:40:11.809Z,5.20
2023-03-02T07:42:38.497Z,5.47
2023-03-02T07:45:05.851Z,5.83
2023-03-02T07:47:32.305Z,4.93
2023-03-02T07:49:58.375Z,5.10
2023-03-02T07:52:24.519Z,5.73
2023-03-02T07:54:50.684Z,5.67
2023-03-02T07:57:17.473Z,5.53
2023-03-02T07:59:43.755Z,5.70
2023-03-02T08:02:15.249Z,5.20
2023-03-02T08:04:42.228Z,5.53
2023-03-02T08:07:08.463Z,5.80
2023-03-02T08:09:34.738Z,5.37
2023-03-02T08:12:00.904Z,4.90
2023-03-02T08:14:27.078Z,5.57
2023-03-02T08:16:53.154Z,5.23
2023-03-02T08:19:19.472Z,5.30
2023-03-02T08:21:45.613Z,5.43
2023-03-02T08:24:12.105Z,5.60
2023-03-02T08:26:38.382Z,5.20
2023-03-02T08:29:05.248Z,5.83
2023-03-02T08:31:31.937Z,5.63
2023-03-02T08:33:58.850Z,6.33
2023-03-02T08:36:25.314Z,5.43
2023-03-02T08:38:51.744Z,5.13
2023-03-02T08:41:20.333Z,6.00
2023-03-02T08:43:47.344Z,5.90
2023-03-02T08:46:15.439Z,5.27
2023-03-02T08:48:41.788Z,5.73
2023-03-02T08:51:14.390Z,5.73
2023-03-02T08:53:42.917Z,5.03
2023-03-02T08:56:38.851Z,5.77
2023-03-02T08:59:07.220Z,5.47
2023-03-02T09:01:35.708Z,5.70
2023-03-02T09:04:04.240Z,5.37
2023-03-02T09:06:32.312Z,5.70
2023-03-02T09:08:58.562Z,4.83
2023-03-02T09:11:25.145Z,5.20
2023-03-02T09:13:51.370Z,5.90
2023-03-02T09:16:20.543Z,5.27
2023-03-02T09:18:47.304Z,5.57
2023-03-02T09:21:13.593Z,5.10
2023-03-02T09:23:39.781Z,5.50
2023-03-02T09:26:05.976Z,5.50
2023-03-02T09:28:32.214Z,5.97
2023-03-02T09:31:03.020Z,5.50
2023-03-02T09:33:29.640Z,6.07
2023-03-02T09:35:55.848Z,7.07
2023-03-02T09:38:22.357Z,5.33
2023-03-02T09:41:13.519Z,5.70
2023-03-02T09:44:03.854Z,5.43
2023-03-02T09:46:35.511Z,5.23
2023-03-02T09:49:13.890Z,5.70
2023-03-02T09:51:54.840Z,5.30
2023-03-02T09:54:24.553Z,5.00
2023-03-02T09:56:56.908Z,4.83
2023-03-02T09:59:32.523Z,5.30
2023-03-02T10:02:10.808Z,5.50
2023-03-02T10:04:45.096Z,5.80
2023-03-02T10:07:13.726Z,5.93
2023-03-02T10:09:40.269Z,5.60
2023-03-02T10:12:38.945Z,4.87
2023-03-02T10:15:07.930Z,4.77
2023-03-02T10:17:52.100Z,4.60
2023-03-02T10:20:34.376Z,5.10
2023-03-02T10:23:27.817Z,5.57
2023-03-02T10:26:04.808Z,5.20
2023-03-02T10:28:38.029Z,5.30
2023-03-02T10:31:11.650Z,4.90
2023-03-02T10:33:38.918Z,5.10
2023-03-02T10:36:14.640Z,5.70
2023-03-02T10:38:40.774Z,5.47
2023-03-02T10:41:09.868Z,5.30
2023-03-02T10:43:39.793Z,4.30
2023-03-02T10:46:08.714Z,4.90
2023-03-02T10:48:52.814Z,4.90
2023-03-02T10:51:34.532Z,5.07
2023-03-02T10:54:13.888Z,5.17
2023-03-02T10:56:47.976Z,4.40
2023-03-02T10:59:32.284Z,4.80
2023-03-02T11:01:59.698Z,5.03
2023-03-02T11:04:26.009Z,5.53
2023-03-02T11:06:54.425Z,4.97
2023-03-02T11:09:21.014Z,4.80
2023-03-02T11:11:56.035Z,5.00
2023-03-02T11:14:24.910Z,5.60
2023-03-02T11:16:52.093Z,5.33
2023-03-02T11:19:25.498Z,4.63
2023-03-02T11:22:27.589Z,5.20
2023-03-02T11:24:55.663Z,4.67
2023-03-02T11:27:26.011Z,4.73
2023-03-02T11:29:58.082Z,4.83
2023-03-02T11:32:41.470Z,4.53
2023-03-02T11:35:14.872Z,5.20
2023-03-02T11:37:52.247Z,5.20
2023-03-02T11:40:20.599Z,4.40
2023-03-02T11:42:46.835Z,4.47
2023-03-02T11:45:13.058Z,5.27
2023-03-02T11:47:43.239Z,5.00
2023-03-02T11:50:12.143Z,4.90
2023-03-02T11:52:41.885Z,6.00
2023-03-02T11:55:21.961Z,4.83
2023-03-02T11:58:06.600Z,4.83
2023-03-02T12:00:38.672Z,4.83
2023-03-02T12:03:30.880Z,5.10
2023-03-02T12:06:21.392Z,4.93
2023-03-02T12:09:30.224Z,5.00
2023-03-02T12:12:17.178Z,5.10
2023-03-02T12:14:43.583Z,5.10
2023-03-02T12:17:32.214Z,4.60
2023-03-02T12:20:07.635Z,4.60
2023-03-02T12:22:34.641Z,4.13
2023-03-02T12:25:19.305Z,4.70
2023-03-02T12:27:50.704Z,4.80
2023-03-02T12:30:22.752Z,4.30
2023-03-02T12:33:21.136Z,4.27
2023-03-02T12:35:50.175Z,4.50
2023-03-02T12:38:34.233Z,5.20
2023-03-02T12:41:13.149Z,4.33
2023-03-02T12:43:57.274Z,4.50
2023-03-02T12:46:34.733Z,4.27
2023-03-02T12:49:08.071Z,5.00
2023-03-02T12:51:49.901Z,4.33
2023-03-02T12:54:19.447Z,4.70
2023-03-02T12:56:46.306Z,4.07
2023-03-02T12:59:30.493Z,4.23
2023-03-02T13:02:25.901Z,3.63
2023-03-02T13:04:53.213Z,4.57
2023-03-02T13:07:22.878Z,3.47
2023-03-02T13:09:56.284Z,4.10
2023-03-02T13:12:26.116Z,4.20
2023-03-02T13:14:55.847Z,4.40
2023-03-02T13:17:25.593Z,4.10
2023-03-02T13:19:51.858Z,3.80
2023-03-02T13:22:19.379Z,3.83
2023-03-02T13:25:02.885Z,4.30
2023-03-02T13:27:30.059Z,3.80
2023-03-02T13:30:11.063Z,4.23
2023-03-02T13:32:42.496Z,3.87
2023-03-02T13:35:22.690Z,4.23
2023-03-02T13:38:05.362Z,4.30
2023-03-02T13:40:44.036Z,4.17
2023-03-02T13:43:21.472Z,4.73
2023-03-02T13:46:01.632Z,4.30
2023-03-02T13:48:28.423Z,4.03
2023-03-02T13:51:15.141Z,4.53
2023-03-02T13:53:45.784Z,4.00
2023-03-02T13:56:16.110Z,3.87
2023-03-02T13:58:42.212Z,3.70
2023-03-02T14:01:10.703Z,3.63
2023-03-02T14:03:36.913Z,4.60
2023-03-02T14:06:05.257Z,4.00
2023-03-02T14:08:31.759Z,4.30
2023-03-02T14:11:00.318Z,4.40
2023-03-02T14:13:34.511Z,3.83
2023-03-02T14:16:00.716Z,4.07
2023-03-02T14:18:39.933Z,4.10
2023-03-02T14:21:11.404Z,3.93
2023-03-02T14:23:40.370Z,3.70
2023-03-02T14:26:31.307Z,3.47
2023-03-02T14:29:05.914Z,3.50
2023-03-02T14:31:33.286Z,3.80
2023-03-02T14:33:59.539Z,3.53
2023-03-02T14:36:31.889Z,4.40
2023-03-02T14:39:00.242Z,3.67
2023-03-02T14:41:27.366Z,3.37
2023-03-02T14:43:53.603Z,3.53
2023-03-02T14:46:19.725Z,3.70
2023-03-02T14:48:45.938Z,3.30
2023-03-02T14:51:21.630Z,3.43
2023-03-02T14:53:49.908Z,3.73
2023-03-02T14:56:18.568Z,3.67
2023-03-02T14:58:44.820Z,3.23
2023-03-02T15:01:11.706Z,3.83
2023-03-02T15:03:37.873Z,3.60
2023-03-02T15:06:05.545Z,3.67
2023-03-02T15:08:31.647Z,3.30
2023-03-02T15:10:57.826Z,3.50
2023-03-02T15:13:23.943Z,3.63
2023-03-02T15:15:51.966Z,3.80
2023-03-02T15:18:18.961Z,3.80
2023-03-02T15:20:45.055Z,3.57
2023-03-02T15:23:11.140Z,3.53
2023-03-02T15:25:37.280Z,3.53
2023-03-02T15:28:03.508Z,4.10
2023-03-02T15:30:29.857Z,3.60
2023-03-02T15:32:59.060Z,3.47
2023-03-02T15:35:27.109Z,4.17
2023-03-02T15:37:53.620Z,3.30
2023-03-02T15:40:20.025Z,5.10
2023-03-02T15:42:47.204Z,4.57
2023-03-02T15:45:13.509Z,5.20
2023-03-02T15:47:39.622Z,5.40
2023-03-02T15:50:06.015Z,5.37
2023-03-02T15:52:32.223Z,6.43
2023-03-02T15:54:58.283Z,5.80
2023-03-02T15:57:24.412Z,5.90
2023-03-02T15:59:50.579Z,6.37
2023-03-02T16:02:16.826Z,6.27
2023-03-02T16:04:43.056Z,5.87
2023-03-02T16:07:09.142Z,5.90
2023-03-02T16:09:35.206Z,6.57
2023-03-02T16:12:01.346Z,6.90
2023-03-02T16:14:27.680Z,6.93
2023-03-02T16:16:53.899Z,6.70
2023-03-02T16:19:20.125Z,7.10
2023-03-02T16:21:47.255Z,7.60
2023-03-02T16:24:15.427Z,7.30
2023-03-02T16:26:41.864Z,7.60
2023-03-02T16:29:08.024Z,6.97
2023-03-02T16:31:37.079Z,7.33
2023-03-02T16:34:06.936Z,6.80
2023-03-02T16:36:34.669Z,6.70
2023-03-02T16:39:00.744Z,7.60
2023-03-02T16:41:26.962Z,7.30
2023-03-02T16:43:55.667Z,6.93
2023-03-02T16:46:23.992Z,7.20
2023-03-02T16:48:50.590Z,8.30
2023-03-02T16:51:17.912Z,7.30
2023-03-02T16:53:44.241Z,7.80
2023-03-02T16:56:11.262Z,7.83
2023-03-02T16:58:39.094Z,7.73
2023-03-02T17:01:07.145Z,7.90
2023-03-02T17:03:33.780Z,8.13
2023-03-02T17:06:00.742Z,8.53
2023-03-02T17:08:26.838Z,7.93
2023-03-02T17:10:52.908Z,12.13
2023-03-02T17:13:19.156Z,9.80
2023-03-02T17:15:45.271Z,9.80
2023-03-02T17:18:11.414Z,12.13
2023-03-02T17:20:37.694Z,9.90
2023-03-02T17:23:04.215Z,9.80
2023-03-02T17:25:30.298Z,10.07
2023-03-02T17:27:56.493Z,10.10
2023-03-02T17:30:22.635Z,12.53
2023-03-02T17:32:48.917Z,15.30
2023-03-02T17:35:15.197Z,15.23
2023-03-02T17:37:41.910Z,14.53
2023-03-02T17:40:12.295Z,15.20
2023-03-02T17:42:39.321Z,19.10
2023-03-02T17:45:06.330Z,17.37
2023-03-02T17:47:33.151Z,15.60
2023-03-02T17:49:59.357Z,13.53
2023-03-02T17:52:25.544Z,11.77
2023-03-02T17:54:54.018Z,12.00
2023-03-02T17:57:21.915Z,12.07
2023-03-02T17:59:50.880Z,12.00
2023-03-02T18:02:18.188Z,13.17
2023-03-02T18:04:45.295Z,13.53
2023-03-02T18:07:12.255Z,12.73
2023-03-02T18:09:38.492Z,13.57
2023-03-02T18:12:04.999Z,13.93
2023-03-02T18:14:31.113Z,14.17
2023-03-02T18:16:57.234Z,14.70
2023-03-02T18:19:23.336Z,13.77
2023-03-02T18:21:49.443Z,13.40
2023-03-02T18:24:15.546Z,13.70
2023-03-02T18:26:41.748Z,14.40
2023-03-02T18:29:07.837Z,18.00
2023-03-02T18:31:34.160Z,16.60
2023-03-02T18:34:01.183Z,17.33
2023-03-02T18:36:27.375Z,17.20
2023-03-02T18:38:53.811Z,15.73
2023-03-02T18:41:22.152Z,16.20
2023-03-02T18:43:48.560Z,16.73
2023-03-02T18:46:25.898Z,16.87
2023-03-02T18:48:53.183Z,17.60
2023-03-02T18:51:20.251Z,19.07
2023-03-02T18:53:47.129Z,19.20
2023-03-02T18:56:13.300Z,19.23
2023-03-02T18:58:39.986Z,18.90
2023-03-02T19:01:06.568Z,20.70
2023-03-02T19:03:35.357Z,20.90
2023-03-02T19:06:01.868Z,21.47
2023-03-02T19:08:28.162Z,20.47
2023-03-02T19:10:54.876Z,20.00
2023-03-02T19:13:21.787Z,22.40
2023-03-02T19:15:47.877Z,20.43
2023-03-02T19:18:15.912Z,23.70
2023-03-02T19:20:44.602Z,22.70
2023-03-02T19:23:10.923Z,23.10
2023-03-02T19:25:38.011Z,22.47
2023-03-02T19:28:04.808Z,22.47
2023-03-02T19:30:31.235Z,23.20
2023-03-02T19:32:57.280Z,21.53
2023-03-02T19:35:26.418Z,23.13
2023-03-02T19:37:52.632Z,24.27
2023-03-02T19:40:20.517Z,25.63
2023-03-02T19:42:47.127Z,24.07
2023-03-02T19:45:17.477Z,23.00
2023-03-02T19:47:44.676Z,23.90
2023-03-02T19:50:11.737Z,24.50
2023-03-02T19:52:37.985Z,22.93
2023-03-02T19:55:11.823Z,23.70
2023-03-02T19:57:39.194Z,22.00
2023-03-02T20:00:09.081Z,23.27
2023-03-02T20:02:36.422Z,22.07
2023-03-02T20:05:03.371Z,23.70
2023-03-02T20:07:29.533Z,27.70
2023-03-02T20:09:55.665Z,20.93
2023-03-02T20:12:21.761Z,21.60
2023-03-02T20:14:52.205Z,22.47
2023-03-02T20:17:18.998Z,21.80
2023-03-02T20:19:46.249Z,22.20
2023-03-02T20:22:12.955Z,23.47
2023-03-02T20:24:39.671Z,23.27
2023-03-02T20:27:06.205Z,22.90
2023-03-02T20:29:36.422Z,23.47
2023-03-02T20:32:05.456Z,25.30
2023-03-02T20:34:31.698Z,23.87
2023-03-02T20:36:58.136Z,24.80
2023-03-02T20:39:28.119Z,24.90
2023-03-02T20:41:54.584Z,26.83
2023-03-02T20:44:22.520Z,23.97
2023-03-02T20:46:53.228Z,24.57
2023-03-02T20:49:21.269Z,24.30
2023-03-02T20:51:53.948Z,27.10
2023-03-02T20:54:22.309Z,25.00
2023-03-02T20:56:48.762Z,24.80
2023-03-02T20:59:15.124Z,24.97
2023-03-02T21:01:42.271Z,24.67
2023-03-02T21:04:08.411Z,25.03
2023-03-02T21:06:34.525Z,25.77
2023-03-02T21:09:02.171Z,24.13
2023-03-02T21:11:29.082Z,25.40
2023-03-02T21:13:55.986Z,25.37
2023-03-02T21:16:25.497Z,25.33
2023-03-02T21:18:52.030Z,25.97
2023-03-02T21:21:19.234Z,25.73
2023-03-02T21:23:46.648Z,24.73
2023-03-02T21:26:14.348Z,25.80
2023-03-02T21:28:44.122Z,25.93
2023-03-02T21:31:11.472Z,26.80
2023-03-02T21:33:37.772Z,27.07
2023-03-02T21:36:04.454Z,25.17
2023-03-02T21:38:30.675Z,27.13
2023-03-02T21:40:57.970Z,27.47
2023-03-02T21:43:24.262Z,26.77
2023-03-02T21:45:50.424Z,26.10
2023-03-02T21:48:16.796Z,26.20
2023-03-02T21:50:42.998Z,26.43
2023-03-02T21:53:09.123Z,26.53
2023-03-02T21:55:35.369Z,24.03
2023-03-02T21:58:01.635Z,27.27
2023-03-02T22:00:33.802Z,25.63
2023-03-02T22:03:00.552Z,25.03
2023-03-02T22:05:26.903Z,25.20
2023-03-02T22:07:53.463Z,26.27
2023-03-02T22:10:49.881Z,26.27
2023-03-02T22:13:17.278Z,25.03
2023-03-02T22:15:44.768Z,26.03
2023-03-02T22:18:12.428Z,25.63
2023-03-02T22:20:41.431Z,24.33
2023-03-02T22:23:12.616Z,26.87
2023-03-02T22:25:39.031Z,26.00
2023-03-02T22:28:16.587Z,25.17
2023-03-02T22:30:43.012Z,25.80
2023-03-02T22:33:20.537Z,25.87
2023-03-02T22:35:48.178Z,24.80
2023-03-02T22:38:25.387Z,24.43
2023-03-02T22:40:53.128Z,23.87
2023-03-02T22:43:25.412Z,25.30
2023-03-02T22:45:52.692Z,24.43
2023-03-02T22:48:21.124Z,23.83
2023-03-02T22:50:48.511Z,23.53
2023-03-02T22:53:31.268Z,23.10
2023-03-02T22:56:00.030Z,24.07
2023-03-02T22:58:44.595Z,24.17
2023-03-02T23:01:25.409Z,23.87
2023-03-02T23:04:02.462Z,23.43
2023-03-02T23:06:31.080Z,24.00
2023-03-02T23:08:59.749Z,24.17
2023-03-02T23:11:27.185Z,24.10
2023-03-02T23:13:53.575Z,27.00
2023-03-02T23:16:21.750Z,24.53
2023-03-02T23:18:49.089Z,26.00
2023-03-02T23:21:28.133Z,25.20
2023-03-02T23:23:54.900Z,25.30
2023-03-02T23:26:21.095Z,25.87
2023-03-02T23:28:48.567Z,25.30
2023-03-02T23:31:15.587Z,26.10
2023-03-02T23:33:41.748Z,24.70
2023-03-02T23:36:08.540Z,25.60
2023-03-02T23:38:34.699Z,26.27
2023-03-02T23:41:00.804Z,25.03
2023-03-02T23:43:26.944Z,24.93
2023-03-02T23:45:53.223Z,25.20
2023-03-02T23:48:19.372Z,27.37
2023-03-02T23:50:45.809Z,25.87
2023-03-02T23:53:12.796Z,25.57
2023-03-02T23:55:40.676Z,23.90
2023-03-02T23:58:07.010Z,26.33
